Airfield :
LOGIN :

Register | Disclaimer

   EN    FR    IT 

 










Legend :    VFR   Marginal VFR   IFR   Intensive IFR   Very Intensive IFR
Visi :
Ceiling :
>= 8 km
>= 3000ft
5 to 8 km
1000 to 3000 ft
1500m to 5 km
500 to 1000 ft
800 to 1500m
200 to 500 ft
< 800m
< 200 ft
Symbols :   Thunderstorms  Fog  Heavy snow  Heavy precipitations  Wind > 20 kt
SIGMETs :     Misc.  Thunderstorms  Icing  Turbulence  Mountain Waves  Volcanic Ashes






- Airport Elevation : 163 ft
- IATA code : IST


LTBA - Ataturk

CURRENT METAR :
  • 271050Z 21018KT 9999 FEW040 BKN100 16/08 Q1005 NOSIG

EXPIRED METARs :
  • 271020Z 23013KT 9999 FEW040 BKN100 16/08 Q1006 NOSIG RMK RWY17L 22015KT RWY05 25010KT RWY23 24015KT
  • 270950Z 22018KT 9999 FEW040 BKN100 16/08 Q1006 NOSIG RMK RWY17L 21022KT RWY05 24016KT RWY23 23020KT
  • 270920Z 20022KT CAVOK 15/08 Q1006 NOSIG RMK RWY17L 20025KT RWY05 22019KT RWY23 22026KT
  • 270850Z 21024KT CAVOK 15/07 Q1006 NOSIG RMK RWY17L 20026KT RWY05 22022G33KT RWY23 22024KT
  • 270820Z 21019KT CAVOK 15/07 Q1006 NOSIG RMK RWY17L 20020KT RWY05 22017KT RWY23 22021KT

TAF TAF LTBA
Valid from the 27 at 06:00 until the 28 at 12:00 UTC


270440Z 2706/2812 21024G42KT 9999 SCT032 BKN100
TEMPO 2711/2715 2000 TSRA SCT017CB BKN028
BECMG 2716/2719 24015KT
BECMG 2720/2722 30006KT
TEMPO 2722/2802 -SHRA BKN025
BECMG 2807/2810 20010KT



MET'MAP, your aeronautical weather chart ! - Copyright ORBIFLY December 2007 - Disclaimer

ORBIFLY MET'MAP TEAM :

Programming & Development : Alexandra Zaïnal
Concept & original design : Baudouin d'Aumeries
Assistance for programming : Marc-Olivier Méhu
Technical & hardware support : Manuel Goepfert

Contact : metmap@orbifly.com




SOURCES & CREDITS :

   NOAA